createdAt,value
2022-08-20T00:00:32.449Z,8.75
2022-08-20T00:03:03.005Z,8.73
2022-08-20T00:05:36.902Z,9.40
2022-08-20T00:08:06.933Z,8.60
2022-08-20T00:10:35.740Z,10.93
2022-08-20T00:13:02.864Z,11.40
2022-08-20T00:15:32.519Z,9.63
2022-08-20T00:17:59.221Z,10.48
2022-08-20T00:20:29.450Z,13.68
2022-08-20T00:22:57.488Z,12.82
2022-08-20T00:25:25.567Z,10.95
2022-08-20T00:27:52.331Z,10.13
2022-08-20T00:30:18.965Z,8.43
2022-08-20T00:32:54.582Z,9.05
2022-08-20T00:35:23.440Z,9.55
2022-08-20T00:37:50.201Z,10.48
2022-08-20T00:40:23.292Z,8.38
2022-08-20T00:42:57.494Z,11.43
2022-08-20T00:45:27.932Z,12.65
2022-08-20T00:47:55.566Z,15.70
2022-08-20T00:50:34.079Z,16.95
2022-08-20T00:53:02.788Z,19.48
2022-08-20T00:55:31.784Z,17.25
2022-08-20T00:58:03.131Z,16.55
2022-08-20T01:00:33.960Z,18.00
2022-08-20T01:03:00.941Z,16.42
2022-08-20T01:05:29.929Z,19.42
2022-08-20T01:07:57.443Z,21.63
2022-08-20T01:10:28.899Z,18.60
2022-08-20T01:12:59.470Z,21.92
2022-08-20T01:15:31.142Z,20.25
2022-08-20T01:17:59.697Z,20.42
2022-08-20T01:20:30.222Z,21.45
2022-08-20T01:23:27.676Z,19.15
2022-08-20T01:26:00.456Z,20.95
2022-08-20T01:28:51.221Z,18.83
2022-08-20T01:31:23.896Z,18.65
2022-08-20T01:33:53.716Z,15.75
2022-08-20T01:36:33.240Z,13.88
2022-08-20T01:39:00.892Z,15.80
2022-08-20T01:41:45.948Z,13.32
2022-08-20T01:44:16.676Z,15.07
2022-08-20T01:46:46.740Z,15.40
2022-08-20T01:49:22.997Z,14.57
2022-08-20T01:51:51.863Z,15.75
2022-08-20T01:54:18.661Z,14.32
2022-08-20T01:56:56.952Z,14.18
2022-08-20T02:01:50.822Z,16.73
2022-08-20T02:04:18.356Z,18.58
2022-08-20T02:06:56.096Z,19.83
2022-08-20T02:09:26.085Z,17.23
2022-08-20T02:14:20.339Z,12.55
2022-08-20T02:16:55.081Z,13.82
2022-08-20T02:19:41.292Z,16.00
2022-08-20T02:22:20.441Z,17.50
2022-08-20T02:24:48.504Z,14.02
2022-08-20T02:27:15.453Z,15.27
2022-08-20T02:29:42.114Z,15.85
2022-08-20T02:32:25.030Z,15.95
2022-08-20T02:34:55.740Z,20.95
2022-08-20T02:37:22.323Z,20.10
2022-08-20T02:39:48.946Z,16.42
2022-08-20T02:42:16.955Z,15.68
2022-08-20T02:44:43.641Z,14.93
2022-08-20T02:47:10.357Z,16.33
2022-08-20T02:49:37.026Z,20.40
2022-08-20T02:52:03.906Z,18.77
2022-08-20T02:54:30.557Z,18.35
2022-08-20T02:56:57.234Z,18.92
2022-08-20T02:59:23.874Z,22.13
2022-08-20T03:01:59.487Z,21.65
2022-08-20T03:04:28.771Z,21.17
2022-08-20T03:06:55.393Z,24.83
2022-08-20T03:09:21.991Z,23.88
2022-08-20T03:11:49.376Z,22.48
2022-08-20T03:14:16.008Z,22.75
2022-08-20T03:16:43.216Z,22.27
2022-08-20T03:19:09.926Z,22.52
2022-08-20T03:21:37.248Z,22.83
2022-08-20T03:24:04.156Z,21.77
2022-08-20T03:26:30.840Z,24.65
2022-08-20T03:28:57.572Z,22.75
2022-08-20T03:31:24.433Z,25.42
2022-08-20T03:33:53.568Z,26.92
2022-08-20T03:36:28.045Z,24.55
2022-08-20T03:39:00.689Z,23.10
2022-08-20T03:41:28.689Z,21.13
2022-08-20T03:43:55.829Z,26.40
2022-08-20T03:46:23.527Z,25.55
2022-08-20T03:48:59.706Z,23.63
2022-08-20T03:51:29.276Z,22.52
2022-08-20T03:53:56.024Z,22.33
2022-08-20T03:56:22.671Z,26.80
2022-08-20T03:58:49.342Z,26.58
2022-08-20T04:01:44.844Z,23.10
2022-08-20T04:04:03.114Z,20.25
2022-08-20T04:06:30.427Z,22.02
2022-08-20T04:08:57.613Z,26.45
2022-08-20T04:11:24.460Z,21.58
2022-08-20T04:13:51.317Z,23.45
2022-08-20T04:16:18.209Z,22.10
2022-08-20T04:19:01.681Z,21.80
2022-08-20T04:21:33.019Z,22.88
2022-08-20T04:24:00.893Z,23.92
2022-08-20T04:26:27.589Z,20.80
2022-08-20T04:28:55.687Z,19.90
2022-08-20T04:31:32.665Z,20.85
2022-08-20T04:34:03.759Z,18.98
2022-08-20T04:36:31.222Z,21.27
2022-08-20T04:38:57.859Z,23.33
2022-08-20T04:41:24.569Z,20.30
2022-08-20T04:43:54.926Z,20.60
2022-08-20T04:46:23.932Z,20.52
2022-08-20T04:48:50.797Z,20.25
2022-08-20T04:51:18.339Z,17.48
2022-08-20T04:53:51.942Z,18.88
2022-08-20T04:56:24.088Z,17.63
2022-08-20T04:58:52.475Z,16.58
2022-08-20T05:01:19.472Z,18.98
2022-08-20T05:03:47.918Z,17.08
2022-08-20T05:08:43.004Z,16.75
2022-08-20T05:11:34.473Z,18.70
2022-08-20T05:13:57.403Z,13.53
2022-08-20T05:16:24.601Z,12.85
2022-08-20T05:18:52.501Z,13.35
2022-08-20T05:21:20.635Z,13.02
2022-08-20T05:23:47.451Z,11.65
2022-08-20T05:26:15.955Z,14.57
2022-08-20T05:28:54.154Z,16.23
2022-08-20T05:31:31.713Z,13.43
2022-08-20T05:34:10.393Z,11.95
2022-08-20T05:36:46.837Z,11.23
2022-08-20T05:39:15.428Z,11.25
2022-08-20T05:41:42.545Z,14.27
2022-08-20T05:44:10.924Z,12.45
2022-08-20T05:49:13.686Z,12.88
2022-08-20T05:51:40.293Z,11.25
2022-08-20T05:54:07.527Z,12.60
2022-08-20T05:56:34.362Z,13.93
2022-08-20T05:59:04.881Z,15.15
2022-08-20T06:01:32.639Z,10.00
2022-08-20T06:04:17.856Z,10.75
2022-08-20T06:06:47.117Z,12.27
2022-08-20T06:09:15.857Z,13.38
2022-08-20T06:11:42.573Z,12.90
2022-08-20T06:14:09.296Z,15.43
2022-08-20T06:16:37.393Z,13.82
2022-08-20T06:19:05.055Z,16.45
2022-08-20T06:21:32.224Z,18.73
2022-08-20T06:24:01.004Z,18.60
2022-08-20T06:26:29.839Z,18.00
2022-08-20T06:28:58.580Z,16.88
2022-08-20T06:31:25.289Z,16.83
2022-08-20T06:33:51.939Z,17.33
2022-08-20T06:36:19.183Z,13.82
2022-08-20T06:38:46.684Z,12.05
2022-08-20T06:41:14.124Z,14.30
2022-08-20T06:43:40.805Z,11.77
2022-08-20T06:46:07.699Z,11.05
2022-08-20T06:48:34.310Z,11.45
2022-08-20T06:51:01.650Z,13.57
2022-08-20T06:53:29.135Z,18.42
2022-08-20T06:55:58.936Z,14.97
2022-08-20T06:58:36.575Z,15.77
2022-08-20T07:01:09.707Z,14.85
2022-08-20T07:03:55.369Z,15.35
2022-08-20T07:06:25.966Z,14.70
2022-08-20T07:08:56.425Z,17.95
2022-08-20T07:11:27.731Z,15.65
2022-08-20T07:13:58.816Z,15.18
2022-08-20T07:16:25.866Z,14.27
2022-08-20T07:18:52.575Z,14.00
2022-08-20T07:21:19.192Z,13.82
2022-08-20T07:23:45.977Z,15.73
2022-08-20T07:26:13.340Z,15.73
2022-08-20T07:28:39.953Z,15.65
2022-08-20T07:31:25.719Z,16.77
2022-08-20T07:33:53.655Z,17.42
2022-08-20T07:36:20.443Z,16.23
2022-08-20T07:38:48.131Z,15.95
2022-08-20T07:41:15.146Z,15.55
2022-08-20T07:43:45.679Z,13.90
2022-08-20T07:46:14.646Z,16.05
2022-08-20T07:48:46.827Z,15.95
2022-08-20T07:51:17.135Z,13.75
2022-08-20T07:53:44.617Z,15.68
2022-08-20T07:56:14.418Z,13.40
2022-08-20T07:58:50.677Z,11.95
2022-08-20T08:01:25.689Z,16.00
2022-08-20T08:03:52.787Z,15.23
2022-08-20T08:06:29.243Z,14.50
2022-08-20T08:09:10.096Z,17.42
2022-08-20T08:11:39.020Z,16.67
2022-08-20T08:14:07.392Z,16.23
2022-08-20T08:16:35.277Z,14.70
2022-08-20T08:19:04.959Z,14.68
2022-08-20T08:21:31.804Z,15.20
2022-08-20T08:23:58.775Z,15.05
2022-08-20T08:26:26.324Z,15.48
2022-08-20T08:28:52.945Z,18.13
2022-08-20T08:31:19.581Z,15.60
2022-08-20T08:33:46.404Z,15.70
2022-08-20T08:36:15.308Z,15.52
2022-08-20T08:38:44.444Z,14.98
2022-08-20T08:41:21.645Z,14.57
2022-08-20T08:43:50.861Z,17.45
2022-08-20T08:46:21.593Z,12.48
2022-08-20T08:48:53.371Z,10.45
2022-08-20T08:51:27.471Z,13.98
2022-08-20T08:53:55.824Z,10.77
2022-08-20T08:56:28.815Z,12.90
2022-08-20T08:59:04.000Z,10.05
2022-08-20T09:01:55.360Z,10.07
2022-08-20T09:04:22.056Z,10.88
2022-08-20T09:06:55.087Z,11.52
2022-08-20T09:09:44.857Z,9.13
2022-08-20T09:12:14.945Z,10.25
2022-08-20T09:14:41.627Z,10.25
2022-08-20T09:17:08.453Z,10.13
2022-08-20T09:19:35.518Z,9.50
2022-08-20T09:22:10.042Z,9.18
2022-08-20T09:24:36.789Z,9.55
2022-08-20T09:27:03.904Z,8.73
2022-08-20T09:29:30.640Z,10.00
2022-08-20T09:32:20.867Z,10.55
2022-08-20T09:34:52.043Z,12.63
2022-08-20T09:37:19.619Z,12.10
2022-08-20T09:39:48.017Z,9.25
2022-08-20T09:44:44.049Z,9.02
2022-08-20T09:47:10.976Z,9.73
2022-08-20T09:49:37.685Z,8.90
2022-08-20T09:52:09.523Z,8.65
2022-08-20T09:54:38.019Z,9.25
2022-08-20T09:59:32.996Z,7.22
2022-08-20T10:01:59.764Z,7.20
2022-08-20T10:04:26.398Z,8.23
2022-08-20T10:06:53.176Z,9.23
2022-08-20T10:09:19.828Z,8.40
2022-08-20T10:11:46.424Z,8.50
2022-08-20T10:14:13.038Z,8.82
2022-08-20T10:16:39.634Z,8.80
2022-08-20T10:19:06.837Z,8.18
2022-08-20T10:21:38.420Z,7.20
2022-08-20T10:24:05.656Z,7.40
2022-08-20T10:26:32.236Z,6.35
2022-08-20T10:28:58.887Z,6.25
2022-08-20T10:31:25.483Z,6.15
2022-08-20T10:33:52.064Z,6.15
2022-08-20T10:36:18.780Z,4.88
2022-08-20T10:38:45.600Z,4.43
2022-08-20T10:41:12.499Z,5.47
2022-08-20T10:43:39.116Z,4.72
2022-08-20T10:46:06.072Z,6.20
2022-08-20T10:48:32.779Z,7.75
2022-08-20T10:50:59.402Z,6.88
2022-08-20T10:53:26.046Z,6.90
2022-08-20T10:55:54.436Z,5.25
2022-08-20T11:00:51.018Z,6.03
2022-08-20T11:03:17.799Z,5.60
2022-08-20T11:05:44.644Z,4.70
2022-08-20T11:08:11.308Z,4.80
2022-08-20T11:10:38.952Z,4.22
2022-08-20T11:13:07.084Z,3.40
2022-08-20T11:15:36.691Z,4.00
2022-08-20T11:18:04.649Z,4.05
2022-08-20T11:20:32.133Z,4.40
2022-08-20T11:22:59.003Z,3.43
2022-08-20T11:25:26.711Z,2.97
2022-08-20T11:27:54.377Z,3.20
2022-08-20T11:30:33.032Z,3.28
2022-08-20T11:33:00.479Z,2.72
2022-08-20T11:35:49.484Z,3.25
2022-08-20T11:38:15.478Z,2.55
2022-08-20T11:40:42.135Z,2.40
2022-08-20T11:43:17.258Z,3.40
2022-08-20T11:45:54.351Z,3.20
2022-08-20T11:48:21.291Z,2.47
2022-08-20T11:50:48.623Z,2.97
2022-08-20T11:53:15.718Z,2.72
2022-08-20T11:55:42.856Z,2.40
2022-08-20T11:58:10.158Z,2.60
2022-08-20T12:00:37.209Z,2.50
2022-08-20T12:03:05.938Z,2.50
2022-08-20T12:05:36.549Z,2.58
2022-08-20T12:08:03.558Z,2.15
2022-08-20T12:10:30.429Z,2.70
2022-08-20T12:12:57.487Z,2.55
2022-08-20T12:15:25.434Z,2.20
2022-08-20T12:17:52.413Z,2.13
2022-08-20T12:20:19.153Z,2.00
2022-08-20T12:22:45.768Z,1.83
2022-08-20T12:25:13.431Z,2.28
2022-08-20T12:27:40.388Z,2.70
2022-08-20T12:30:14.590Z,1.80
2022-08-20T12:32:42.419Z,2.15
2022-08-20T12:35:10.797Z,2.20
2022-08-20T12:40:07.862Z,1.90
2022-08-20T12:45:17.292Z,2.30
2022-08-20T12:47:46.084Z,2.20
2022-08-20T12:50:21.736Z,2.40
2022-08-20T12:52:48.962Z,1.80
2022-08-20T12:55:18.709Z,2.33
2022-08-20T12:57:59.508Z,2.33
2022-08-20T13:00:37.322Z,1.58
2022-08-20T13:03:05.860Z,1.90
2022-08-20T13:05:33.975Z,2.22
2022-08-20T13:08:01.118Z,2.15
2022-08-20T13:10:33.164Z,2.28
2022-08-20T13:13:02.780Z,2.30
2022-08-20T13:15:32.972Z,2.30
2022-08-20T13:18:02.326Z,2.33
2022-08-20T13:20:34.070Z,2.30
2022-08-20T13:23:02.416Z,2.03
2022-08-20T13:25:29.048Z,2.13
2022-08-20T13:27:58.166Z,2.10
2022-08-20T13:30:25.140Z,1.70
2022-08-20T13:32:51.851Z,1.90
2022-08-20T13:35:19.715Z,1.75
2022-08-20T13:37:46.459Z,1.80
2022-08-20T13:40:13.272Z,2.05
2022-08-20T13:42:40.044Z,2.22
2022-08-20T13:45:07.452Z,2.10
2022-08-20T13:47:37.114Z,1.80
2022-08-20T13:50:16.751Z,2.15
2022-08-20T13:52:44.105Z,2.15
2022-08-20T13:55:12.693Z,1.85
2022-08-20T13:57:40.350Z,1.85
2022-08-20T14:00:12.250Z,1.98
2022-08-20T14:02:40.236Z,1.90
2022-08-20T14:05:07.478Z,2.00
2022-08-20T14:07:34.140Z,2.28
2022-08-20T14:10:04.153Z,1.88
2022-08-20T14:12:31.006Z,2.35
2022-08-20T14:14:57.616Z,2.30
2022-08-20T14:17:31.561Z,2.00
2022-08-20T14:20:08.540Z,2.25
2022-08-20T14:22:36.813Z,1.80
2022-08-20T14:25:05.084Z,2.03
2022-08-20T14:27:33.403Z,2.20
2022-08-20T14:32:27.680Z,2.00
2022-08-20T14:34:56.642Z,2.47
2022-08-20T14:37:29.627Z,1.95
2022-08-20T14:39:58.497Z,1.85
2022-08-20T14:42:28.106Z,2.03
2022-08-20T14:44:55.972Z,2.47
2022-08-20T14:47:25.954Z,1.92
2022-08-20T14:49:56.154Z,1.65
2022-08-20T14:52:23.989Z,1.70
2022-08-20T14:54:55.198Z,1.95
2022-08-20T14:57:22.444Z,2.17
2022-08-20T14:59:49.484Z,1.90
2022-08-20T15:02:17.549Z,2.03
2022-08-20T15:04:45.497Z,1.75
2022-08-20T15:07:25.080Z,1.98
2022-08-20T15:09:52.844Z,2.05
2022-08-20T15:12:19.661Z,1.77
2022-08-20T15:14:48.021Z,2.00
2022-08-20T15:17:26.962Z,1.63
2022-08-20T15:19:54.244Z,1.80
2022-08-20T15:22:21.812Z,2.22
2022-08-20T15:24:48.577Z,1.83
2022-08-20T15:27:22.780Z,2.00
2022-08-20T15:29:50.548Z,1.75
2022-08-20T15:32:17.595Z,1.98
2022-08-20T15:34:44.417Z,1.90
2022-08-20T15:37:13.508Z,1.50
2022-08-20T15:39:41.650Z,1.63
2022-08-20T15:42:09.301Z,1.88
2022-08-20T15:44:36.055Z,1.67
2022-08-20T15:47:13.616Z,2.08
2022-08-20T15:49:40.441Z,1.63
2022-08-20T15:52:07.561Z,1.80
2022-08-20T15:54:34.267Z,1.95
2022-08-20T15:57:14.849Z,2.00
2022-08-20T15:59:47.552Z,1.35
2022-08-20T16:02:25.854Z,1.67
2022-08-20T16:05:08.470Z,1.65
2022-08-20T16:07:41.084Z,1.55
2022-08-20T16:10:16.764Z,2.00
2022-08-20T16:12:49.549Z,1.35
2022-08-20T16:15:23.221Z,1.52
2022-08-20T16:17:55.418Z,1.60
2022-08-20T16:20:22.313Z,1.98
2022-08-20T16:22:49.564Z,1.80
2022-08-20T16:25:22.748Z,1.75
2022-08-20T16:28:17.006Z,1.60
2022-08-20T16:30:47.572Z,1.40
2022-08-20T16:33:16.129Z,1.48
2022-08-20T16:36:10.037Z,1.50
2022-08-20T16:38:53.665Z,1.60
2022-08-20T16:41:33.173Z,1.50
2022-08-20T16:44:07.918Z,1.73
2022-08-20T16:46:38.293Z,1.58
2022-08-20T16:49:11.379Z,1.52
2022-08-20T16:51:40.920Z,1.70
2022-08-20T16:54:08.555Z,1.92
2022-08-20T16:56:43.848Z,1.45
2022-08-20T16:59:26.417Z,1.45
2022-08-20T17:02:07.174Z,1.50
2022-08-20T17:04:58.598Z,1.60
2022-08-20T17:07:43.258Z,1.30
2022-08-20T17:10:26.750Z,1.50
2022-08-20T17:13:19.906Z,1.65
2022-08-20T17:16:27.027Z,1.60
2022-08-20T17:18:54.169Z,1.40
2022-08-20T17:21:24.610Z,1.50
2022-08-20T17:23:56.215Z,1.67
2022-08-20T17:26:35.376Z,2.08
2022-08-20T17:29:33.786Z,1.13
2022-08-20T17:32:20.504Z,1.55
2022-08-20T17:34:53.138Z,1.40
2022-08-20T17:37:22.816Z,1.63
2022-08-20T17:40:18.435Z,1.35
2022-08-20T17:43:02.657Z,1.45
2022-08-20T17:45:35.928Z,1.33
2022-08-20T17:48:04.846Z,1.30
2022-08-20T17:50:38.812Z,1.75
2022-08-20T17:53:14.357Z,2.30
2022-08-20T17:55:41.570Z,1.50
2022-08-20T17:58:12.414Z,1.50
2022-08-20T18:00:39.780Z,1.45
2022-08-20T18:03:17.345Z,1.30
2022-08-20T18:05:45.652Z,1.50
2022-08-20T18:11:02.576Z,1.67
2022-08-20T18:13:52.281Z,1.40
2022-08-20T18:17:03.579Z,1.35
2022-08-20T18:19:39.891Z,1.25
2022-08-20T18:22:11.272Z,1.55
2022-08-20T18:25:04.189Z,1.80
2022-08-20T18:27:43.149Z,1.50
2022-08-20T18:30:19.714Z,1.83
2022-08-20T18:32:47.379Z,1.50
2022-08-20T18:35:18.177Z,1.70
2022-08-20T18:37:44.817Z,1.42
2022-08-20T18:40:23.066Z,1.77
2022-08-20T18:42:49.662Z,1.92
2022-08-20T18:45:32.061Z,1.50
2022-08-20T18:48:00.095Z,1.60
2022-08-20T18:50:38.691Z,1.90
2022-08-20T18:53:16.740Z,1.50
2022-08-20T18:56:11.709Z,1.83
2022-08-20T18:59:01.799Z,1.90
2022-08-20T19:01:28.863Z,1.75
2022-08-20T19:03:56.527Z,2.50
2022-08-20T19:06:46.909Z,2.20
2022-08-20T19:09:47.761Z,1.73
2022-08-20T19:12:44.950Z,1.80
2022-08-20T19:15:21.896Z,1.50
2022-08-20T19:17:56.968Z,1.50
2022-08-20T19:20:29.578Z,1.77
2022-08-20T19:23:00.820Z,2.28
2022-08-20T19:25:30.683Z,1.73
2022-08-20T19:28:00.260Z,1.90
2022-08-20T19:30:29.633Z,2.30
2022-08-20T19:32:56.259Z,2.10
2022-08-20T19:35:24.049Z,2.05
2022-08-20T19:37:51.850Z,1.95
2022-08-20T19:40:22.999Z,1.70
2022-08-20T19:42:52.534Z,1.90
2022-08-20T19:45:27.978Z,1.90
2022-08-20T19:48:16.116Z,1.83
2022-08-20T19:50:54.835Z,1.98
2022-08-20T19:53:30.002Z,1.63
2022-08-20T19:56:07.592Z,1.92
2022-08-20T19:58:35.524Z,1.70
2022-08-20T20:01:03.959Z,1.73
2022-08-20T20:03:37.719Z,1.92
2022-08-20T20:06:18.947Z,1.45
2022-08-20T20:08:53.604Z,1.80
2022-08-20T20:11:23.640Z,1.77
2022-08-20T20:13:50.971Z,1.90
2022-08-20T20:16:19.940Z,2.28
2022-08-20T20:18:58.846Z,1.77
2022-08-20T20:21:46.299Z,1.60
2022-08-20T20:24:31.032Z,2.00
2022-08-20T20:26:59.413Z,1.95
2022-08-20T20:29:29.584Z,2.00
2022-08-20T20:31:58.409Z,2.20
2022-08-20T20:34:30.531Z,2.17
2022-08-20T20:37:50.842Z,1.88
2022-08-20T20:40:44.129Z,1.92
2022-08-20T20:43:22.523Z,2.35
2022-08-20T20:45:56.066Z,1.60
2022-08-20T20:48:26.289Z,1.70
2022-08-20T20:50:56.303Z,1.80
2022-08-20T20:53:52.970Z,1.85
2022-08-20T20:56:28.749Z,1.75
2022-08-20T20:58:56.207Z,1.98
2022-08-20T21:01:45.595Z,1.80
2022-08-20T21:04:10.072Z,1.90
2022-08-20T21:06:36.714Z,2.20
2022-08-20T21:09:03.520Z,2.25
2022-08-20T21:11:30.123Z,2.15
2022-08-20T21:13:56.701Z,1.75
2022-08-20T21:16:23.295Z,1.90
2022-08-20T21:18:49.903Z,2.20
2022-08-20T21:21:16.599Z,2.10
2022-08-20T21:23:43.313Z,2.25
2022-08-20T21:26:10.055Z,2.20
2022-08-20T21:28:36.675Z,2.22
2022-08-20T21:31:03.479Z,1.77
2022-08-20T21:33:30.161Z,2.28
2022-08-20T21:35:56.968Z,1.88
2022-08-20T21:38:24.047Z,1.40
2022-08-20T21:40:50.847Z,1.48
2022-08-20T21:43:18.746Z,1.42
2022-08-20T21:45:45.701Z,1.48
2022-08-20T21:48:16.625Z,1.80
2022-08-20T21:50:43.666Z,1.55
2022-08-20T21:53:12.871Z,1.45
2022-08-20T21:55:40.053Z,1.67
2022-08-20T21:58:06.710Z,1.60
2022-08-20T22:00:48.663Z,2.05
2022-08-20T22:03:16.479Z,2.10
2022-08-20T22:05:47.279Z,2.75
2022-08-20T22:08:13.948Z,2.38
2022-08-20T22:10:40.619Z,2.35
2022-08-20T22:13:07.410Z,2.60
2022-08-20T22:15:34.279Z,2.30
2022-08-20T22:18:00.914Z,2.53
2022-08-20T22:20:27.978Z,2.10
2022-08-20T22:22:54.702Z,2.05
2022-08-20T22:25:21.376Z,2.22
2022-08-20T22:27:47.959Z,2.17
2022-08-20T22:30:14.807Z,2.30
2022-08-20T22:32:51.544Z,2.65
2022-08-20T22:35:19.545Z,2.10
2022-08-20T22:37:46.205Z,2.00
2022-08-20T22:40:12.975Z,1.50
2022-08-20T22:42:39.721Z,1.65
2022-08-20T22:45:14.463Z,2.10
2022-08-20T22:47:41.642Z,2.20
2022-08-20T22:50:09.424Z,2.00
2022-08-20T22:52:38.002Z,1.60
2022-08-20T22:57:34.193Z,1.55
2022-08-20T23:00:01.327Z,1.60
2022-08-20T23:02:28.035Z,1.70
2022-08-20T23:04:54.740Z,1.90
2022-08-20T23:07:21.407Z,1.92
2022-08-20T23:09:48.376Z,1.40
2022-08-20T23:12:15.013Z,1.80
2022-08-20T23:14:41.796Z,1.83
2022-08-20T23:17:14.636Z,1.60
2022-08-20T23:19:41.934Z,1.17
2022-08-20T23:22:09.300Z,1.35
2022-08-20T23:24:36.232Z,1.80
2022-08-20T23:27:04.573Z,1.52
2022-08-20T23:29:31.623Z,1.70
2022-08-20T23:31:58.696Z,1.80
2022-08-20T23:34:26.491Z,1.25
2022-08-20T23:36:54.397Z,1.38
2022-08-20T23:39:21.045Z,1.58
2022-08-20T23:41:48.269Z,1.65
2022-08-20T23:44:25.769Z,1.60
2022-08-20T23:46:55.628Z,1.48
2022-08-20T23:49:22.220Z,1.65
2022-08-20T23:51:48.907Z,1.55
2022-08-20T23:54:15.495Z,1.30
2022-08-20T23:56:42.084Z,1.63
2022-08-20T23:59:08.716Z,1.30
